Terminal Aerodrome Forecast
Issued by NWS Louisville, KY

Home | Current Version | Previous Version | Text Only | Print | Product List | Glossary On
Versions: 1 2 3 4 5 6 7 8 9 10 11 12 13 14 15
000
FTUS43 KLMK 260100 AAA
TAFLEX
TAF AMD
KLEX 260103Z 2601/2624 07010KT 5SM SHRA BKN005 BKN012
     FM260300 05011KT 5SM BR OVC008
     FM261200 03011KT P6SM OVC015
     FM262100 03010KT P6SM BKN035=

USA.gov is the U.S. government's official web portal to all federal, state and local government web resources and services.